Time;durP1;ratioP1;P1;durP2;ratioP2;P2;SDS_P1;SDS_P2;PMS_P1;PMS_P2;Temp;Humidity;BMP_temperature;BMP_pressure;BME280_temperature;BME280_humidity;BME280_pressure;Samples;Min_cycle;Max_cycle;Signal;HPM_P1;HPM_P2
2021/05/20 00:01:45;;;;;;;10.32;4.45;;;;;;;11.14;63.73;100648.68;5096164;56;1140974;-76
2021/05/20 00:06:51;;;;;;;9.43;5.13;;;;;;;11.24;64.20;100658.91;5096330;56;1140955;-80
2021/05/20 00:11:58;;;;;;;9.70;5.25;;;;;;;11.17;63.79;100658.52;5088667;56;1140512;-78
2021/05/20 00:17:04;;;;;;;15.13;6.90;;;;;;;10.97;63.75;100669.83;5096752;56;1138669;-79
2021/05/20 00:22:10;;;;;;;11.48;7.10;;;;;;;10.71;63.84;100669.62;5096442;56;1140573;-79
2021/05/20 00:27:16;;;;;;;14.47;7.20;;;;;;;10.69;64.50;100674.22;5096633;56;1140667;-77
2021/05/20 00:32:21;;;;;;;18.90;8.67;;;;;;;10.58;64.78;100673.20;5096334;56;1140519;-76
2021/05/20 00:37:27;;;;;;;9.33;6.20;;;;;;;10.64;65.03;100681.17;5095860;56;1140515;-74
2021/05/20 00:42:33;;;;;;;14.93;7.30;;;;;;;10.78;65.19;100691.55;5096181;56;1138620;-74
2021/05/20 00:47:39;;;;;;;9.80;6.03;;;;;;;10.86;65.23;100681.69;5096160;56;1140603;-79
2021/05/20 00:52:45;;;;;;;13.70;6.50;;;;;;;10.96;65.16;100682.70;5096805;56;1138500;-74
2021/05/20 00:57:53;;;;;;;9.53;6.07;;;;;;;10.99;65.07;100685.59;5096135;56;1140504;-75
2021/05/20 01:02:59;;;;;;;9.53;6.12;;;;;;;11.01;64.92;100695.08;5100293;56;1145080;-76
2021/05/20 01:08:05;;;;;;;10.82;6.12;;;;;;;10.99;64.71;100690.41;5096401;56;1138475;-77
2021/05/20 01:13:11;;;;;;;8.35;5.35;;;;;;;10.86;64.21;100692.27;5078072;56;1140620;-79
2021/05/20 01:18:18;;;;;;;7.33;5.80;;;;;;;10.66;64.08;100692.48;5096422;56;1138668;-76
2021/05/20 01:23:23;;;;;;;8.83;6.27;;;;;;;10.39;64.04;100691.91;5096909;56;1138548;-79
2021/05/20 01:28:32;;;;;;;9.43;6.73;;;;;;;10.22;64.47;100690.50;5096520;56;1138724;-76
2021/05/20 01:33:36;;;;;;;10.80;6.77;;;;;;;10.11;64.73;100690.38;5096442;56;1138526;-77
2021/05/20 01:38:42;;;;;;;11.97;6.33;;;;;;;10.13;65.10;100693.28;5096027;56;1140520;-79
2021/05/20 01:43:49;;;;;;;11.43;6.47;;;;;;;10.03;64.68;100692.27;5062712;56;1140484;-76
2021/05/20 01:48:55;;;;;;;8.07;6.50;;;;;;;9.86;64.76;100695.28;5060911;57;1140483;-75
2021/05/20 01:54:01;;;;;;;11.83;6.43;;;;;;;9.78;65.09;100691.86;5061344;57;1137118;-78
2021/05/20 01:59:09;;;;;;;8.43;6.20;;;;;;;9.84;65.73;100695.88;5061088;57;1138989;-76
2021/05/20 02:04:15;;;;;;;8.25;6.12;;;;;;;9.92;66.04;100694.86;5061326;57;1136844;-75
2021/05/20 02:09:21;;;;;;;10.60;5.97;;;;;;;9.98;65.98;100701.48;5060706;57;1136810;-79
2021/05/20 02:14:28;;;;;;;12.20;6.37;;;;;;;10.02;65.87;100698.52;5060732;57;1138969;-75
2021/05/20 02:19:34;;;;;;;10.50;5.93;;;;;;;10.02;65.64;100702.95;5060515;57;1141017;-78
2021/05/20 02:24:39;;;;;;;13.83;6.33;;;;;;;9.94;65.25;100701.33;5060764;57;1141041;-76
2021/05/20 02:29:45;;;;;;;10.67;6.70;;;;;;;9.90;65.34;100702.52;5061477;57;1138833;-77
2021/05/20 02:34:51;;;;;;;11.47;5.50;;;;;;;9.84;65.47;100697.19;5061429;57;1139066;-78
2021/05/20 02:39:58;;;;;;;9.80;5.50;;;;;;;9.84;65.37;100704.64;5061529;57;1139133;-75
2021/05/20 02:45:09;;;;;;;11.03;6.17;;;;;;;9.71;64.69;100707.80;5061628;57;1137062;-77
2021/05/20 02:50:17;;;;;;;26.32;8.46;;;;;;;9.55;65.30;100701.91;5061598;57;1138902;-77
2021/05/20 02:55:25;;;;;;;31.10;7.57;;;;;;;9.29;65.87;100709.48;5061537;57;1138926;-78
2021/05/20 03:00:33;;;;;;;67.00;9.57;;;;;;;9.17;66.68;100707.19;5061091;57;1139155;-75
2021/05/20 03:05:38;;;;;;;12.33;6.93;;;;;;;9.10;67.15;100708.58;5061399;57;1138871;-76
2021/05/20 03:10:45;;;;;;;19.97;7.70;;;;;;;9.11;67.81;100709.80;5061294;57;1138900;-73
2021/05/20 03:15:50;;;;;;;18.47;7.67;;;;;;;9.07;67.49;100713.59;5061532;57;1139098;-75
2021/05/20 03:20:56;;;;;;;10.07;7.10;;;;;;;8.94;67.66;100719.33;5061633;57;1138910;-74
2021/05/20 03:26:02;;;;;;;8.50;5.57;;;;;;;8.89;68.12;100715.30;5041827;57;1148462;-76
2021/05/20 03:31:08;;;;;;;9.73;4.95;;;;;;;8.91;68.41;100708.13;5061790;57;1136875;-76
2021/05/20 03:36:14;;;;;;;8.13;4.53;;;;;;;9.00;68.86;100710.17;5061821;57;1137121;-77
2021/05/20 03:41:20;;;;;;;4.13;3.73;;;;;;;8.96;68.64;100713.95;5061494;57;1136995;-77
2021/05/20 03:46:25;;;;;;;9.17;4.23;;;;;;;8.94;68.98;100711.41;5061575;57;1136970;-78
2021/05/20 03:51:32;;;;;;;7.93;4.50;;;;;;;8.98;69.18;100709.42;5061336;57;1136806;-77
2021/05/20 03:56:37;;;;;;;7.93;5.40;;;;;;;8.99;69.32;100716.39;5061403;57;1137201;-75
2021/05/20 04:01:43;;;;;;;8.40;6.17;;;;;;;8.96;69.54;100717.44;5061323;57;1137002;-75
2021/05/20 04:06:49;;;;;;;10.50;6.87;;;;;;;8.90;69.80;100724.91;5061332;57;1136844;-75
2021/05/20 04:11:56;;;;;;;21.27;6.93;;;;;;;8.80;70.11;100720.73;5061427;57;1138947;-79
2021/05/20 04:17:03;;;;;;;11.80;6.22;;;;;;;8.78;70.71;100725.27;5119405;56;1138937;-75
2021/05/20 04:22:09;;;;;;;13.78;6.05;;;;;;;8.78;71.18;100730.06;5065652;57;1138662;-75
2021/05/20 04:27:15;;;;;;;6.50;4.97;;;;;;;8.90;71.68;100720.95;5060849;57;1139331;-74
2021/05/20 04:32:21;;;;;;;4.60;4.17;;;;;;;9.02;71.96;100728.87;5084234;56;1136730;-74
2021/05/20 04:37:26;;;;;;;8.90;4.63;;;;;;;9.22;72.54;100734.59;5144860;56;1136243;-74
2021/05/20 04:42:33;;;;;;;10.20;5.20;;;;;;;9.26;72.39;100742.20;5058456;57;1136347;-76
2021/05/20 04:47:38;;;;;;;7.43;3.97;;;;;;;9.31;72.66;100744.54;5058174;57;1138471;-74
2021/05/20 04:52:45;;;;;;;10.77;4.80;;;;;;;9.39;72.91;100747.01;5058126;57;1136690;-72
2021/05/20 04:57:51;;;;;;;6.73;4.23;;;;;;;9.40;73.39;100750.02;5054366;57;1138691;-74
2021/05/20 05:02:57;;;;;;;4.57;3.70;;;;;;;9.43;73.67;100752.45;5092986;57;1136392;-73
2021/05/20 05:08:03;;;;;;;8.97;3.87;;;;;;;9.61;73.78;100744.21;4948709;58;1144016;-77
2021/05/20 05:13:08;;;;;;;9.15;4.30;;;;;;;9.76;73.76;100746.63;5110879;56;1136792;-74
2021/05/20 05:18:14;;;;;;;7.78;4.95;;;;;;;9.92;74.01;100747.70;5049095;57;1136956;-76
2021/05/20 05:23:21;;;;;;;7.55;4.58;;;;;;;10.10;73.73;100740.23;4899691;58;1136859;-75
2021/05/20 05:28:27;;;;;;;5.17;4.03;;;;;;;10.27;73.84;100747.81;4900178;58;1138359;-75
2021/05/20 05:33:33;;;;;;;5.17;3.50;;;;;;;10.49;74.22;100763.81;5084163;57;1138686;-76
2021/05/20 05:38:39;;;;;;;6.03;2.90;;;;;;;10.66;73.89;100761.25;5017868;57;1138643;-77
2021/05/20 05:43:45;;;;;;;3.37;2.98;;;;;;;10.82;73.73;100768.90;5097195;56;1138528;-74
2021/05/20 05:48:52;;;;;;;5.03;2.97;;;;;;;11.00;73.88;100775.43;5157648;56;1138673;-77
2021/05/20 05:53:58;;;;;;;4.20;3.73;;;;;;;11.17;73.20;100776.33;5082052;57;1138807;-77
2021/05/20 05:59:04;;;;;;;5.80;2.40;;;;;;;11.37;73.31;100773.49;5105995;56;1138684;-78
2021/05/20 06:04:10;;;;;;;6.20;3.98;;;;;;;11.68;72.98;100757.87;5091023;56;1138778;-75
2021/05/20 06:09:16;;;;;;;2.98;2.72;;;;;;;11.90;71.77;100761.41;5108458;56;1139111;-76
2021/05/20 06:14:22;;;;;;;3.03;2.60;;;;;;;12.09;70.77;100758.59;5097594;56;1138772;-80
2021/05/20 06:19:28;;;;;;;3.37;2.90;;;;;;;12.24;69.90;100763.50;5107627;56;1138653;-79
2021/05/20 06:24:34;;;;;;;4.97;2.63;;;;;;;12.29;69.19;100769.77;5098389;56;1138394;-75
2021/05/20 06:29:39;;;;;;;3.83;3.30;;;;;;;12.41;68.65;100772.75;5113560;56;1138435;-74
2021/05/20 06:34:45;;;;;;;3.20;2.70;;;;;;;12.51;68.52;100772.87;5101650;56;1138876;-77
2021/05/20 06:39:51;;;;;;;2.37;2.00;;;;;;;12.71;68.29;100772.05;5098520;56;1138912;-77
2021/05/20 06:44:56;;;;;;;4.23;2.10;;;;;;;12.93;66.89;100777.77;5114529;56;1138394;-76
2021/05/20 06:50:03;;;;;;;1.90;1.80;;;;;;;13.00;66.95;100779.77;5074817;56;1138619;-78
2021/05/20 06:55:10;;;;;;;1.60;1.50;;;;;;;13.30;65.52;100782.17;5065710;56;1138961;-76
2021/05/20 07:00:17;;;;;;;4.15;2.75;;;;;;;13.38;64.36;100785.03;5066222;56;1139177;-76
2021/05/20 07:05:24;;;;;;;6.37;3.17;;;;;;;13.36;63.69;100779.85;5097695;56;1138880;-77
2021/05/20 07:10:30;;;;;;;2.77;2.20;;;;;;;13.43;64.11;100772.70;5073664;56;1138840;-75
2021/05/20 07:15:38;;;;;;;5.03;4.10;;;;;;;13.59;64.49;100779.23;5106118;56;1139155;-77
2021/05/20 07:20:46;;;;;;;3.30;3.00;;;;;;;13.65;63.86;100779.17;5091623;56;1139307;-79
2021/05/20 07:25:52;;;;;;;6.17;3.00;;;;;;;13.65;62.62;100780.01;5075689;56;1138914;-76
2021/05/20 07:30:57;;;;;;;2.27;1.80;;;;;;;13.69;62.26;100784.09;5065575;56;1139221;-74
2021/05/20 07:36:03;;;;;;;2.50;2.30;;;;;;;13.98;62.21;100772.73;5066140;56;1138880;-74
2021/05/20 07:41:09;;;;;;;2.60;2.40;;;;;;;14.25;60.51;100770.29;5081882;56;1139019;-78
2021/05/20 07:46:15;;;;;;;2.87;2.60;;;;;;;14.61;60.98;100778.66;5106404;56;1138912;-77
2021/05/20 07:51:21;;;;;;;8.48;2.67;;;;;;;14.53;59.89;100771.84;5104879;56;1139070;-74
2021/05/20 07:56:27;;;;;;;2.20;2.10;;;;;;;14.52;60.71;100772.81;5082801;56;1138921;-77
2021/05/20 08:01:34;;;;;;;4.90;2.20;;;;;;;14.51;60.77;100765.84;5106401;55;1138943;-76
2021/05/20 08:06:53;;;;;;;3.57;2.13;;;;;;;14.51;60.73;100768.02;5106582;56;1138456;-76
2021/05/20 08:11:51;;;;;;;6.07;1.70;;;;;;;14.51;59.82;100770.67;5121799;56;1138375;-76
2021/05/20 08:16:56;;;;;;;2.47;2.20;;;;;;;14.55;61.28;100768.06;5090400;56;1138427;-74
2021/05/20 08:22:02;;;;;;;2.83;2.33;;;;;;;14.50;61.22;100767.66;5105809;56;1138969;-80
2021/05/20 08:27:11;;;;;;;2.73;2.53;;;;;;;14.51;60.67;100773.34;5109587;56;1138504;-76
2021/05/20 08:32:16;;;;;;;4.42;3.00;;;;;;;14.50;61.54;100765.00;5083444;56;1139055;-78
2021/05/20 08:37:22;;;;;;;3.33;3.08;;;;;;;14.44;61.33;100774.84;5083239;56;1139012;-78
2021/05/20 08:42:28;;;;;;;4.17;3.27;;;;;;;14.32;61.13;100779.91;5089861;56;1138825;-75
2021/05/20 08:47:34;;;;;;;3.53;2.53;;;;;;;14.19;61.63;100785.48;5090801;56;1138912;-76
2021/05/20 08:52:41;;;;;;;4.30;3.20;;;;;;;14.16;61.88;100784.42;5110793;56;1139035;-76
2021/05/20 08:57:47;;;;;;;2.90;2.37;;;;;;;14.14;62.30;100786.86;5114208;56;1139112;-76
2021/05/20 09:03:09;;;;;;;6.60;2.43;;;;;;;14.24;62.56;100795.20;5099785;56;1139089;-77
2021/05/20 09:08:19;;;;;;;4.30;3.35;;;;;;;14.25;62.69;100794.23;5090166;56;1139279;-74
2021/05/20 09:13:23;;;;;;;5.57;4.10;;;;;;;14.24;61.46;100796.54;5095063;56;1139366;-75
2021/05/20 09:18:28;;;;;;;3.63;3.30;;;;;;;14.16;62.40;100798.20;5097428;56;1138885;-75
2021/05/20 09:23:35;;;;;;;3.30;3.00;;;;;;;14.17;63.95;100800.73;5091628;56;1139252;-75
2021/05/20 09:28:48;;;;;;;2.63;2.03;;;;;;;14.26;63.99;100795.92;5109928;56;1138814;-77
2021/05/20 09:33:55;;;;;;;2.10;1.90;;;;;;;14.43;63.23;100799.78;5116105;56;1139229;-74
2021/05/20 09:39:13;;;;;;;3.60;2.60;;;;;;;14.54;63.36;100793.48;5133235;56;1138708;-75
2021/05/20 09:44:33;;;;;;;4.75;3.30;;;;;;;14.72;63.16;100792.67;5092845;56;1138457;-75
2021/05/20 09:50:01;;;;;;;3.07;2.80;;;;;;;15.04;64.25;100781.75;5105008;56;1138744;-78
2021/05/20 09:55:23;;;;;;;5.43;3.27;;;;;;;15.33;62.57;100783.53;5080963;56;1139136;-76
2021/05/20 10:00:31;;;;;;;2.52;2.30;;;;;;;15.27;60.56;100778.30;5114937;56;1138586;-76
2021/05/20 10:05:46;;;;;;;4.00;3.30;;;;;;;15.09;60.52;100779.51;5085601;56;1138632;-77
2021/05/20 10:10:55;;;;;;;4.33;3.33;;;;;;;15.00;61.22;100771.51;5109168;56;1138605;-75
2021/05/20 10:16:01;;;;;;;3.13;2.87;;;;;;;14.83;62.42;100774.38;5099719;56;1139049;-76
2021/05/20 10:21:07;;;;;;;5.53;2.90;;;;;;;14.62;63.21;100772.36;5094466;56;1138467;-76
2021/05/20 10:26:13;;;;;;;4.40;2.65;;;;;;;14.60;64.28;100772.98;5089985;56;1138863;-78
2021/05/20 10:31:20;;;;;;;5.00;2.67;;;;;;;14.50;64.46;100774.80;5096320;56;1138755;-74
2021/05/20 10:36:29;;;;;;;2.65;2.08;;;;;;;14.35;63.81;100778.31;5090438;56;1138362;-79
2021/05/20 10:41:40;;;;;;;8.47;2.20;;;;;;;14.30;63.93;100766.74;5114395;56;1138990;-76
2021/05/20 10:47:04;;;;;;;2.90;2.30;;;;;;;14.62;64.40;100757.23;5081286;57;1138746;-78
2021/05/20 10:52:42;;;;;;;3.20;1.83;;;;;;;15.02;62.79;100743.75;5101261;56;1138956;-78
2021/05/20 10:57:57;;;;;;;2.47;1.50;;;;;;;15.22;60.77;100747.23;5143873;56;1138709;-76
2021/05/20 11:03:05;;;;;;;1.90;1.80;;;;;;;15.38;60.15;100747.48;5133692;56;1138597;-73
2021/05/20 11:08:13;;;;;;;4.00;2.20;;;;;;;15.44;60.35;100742.89;5083049;56;1139191;-77
2021/05/20 11:13:40;;;;;;;3.62;1.87;;;;;;;15.44;58.53;100736.72;5114397;56;1139110;-75
2021/05/20 11:18:49;;;;;;;2.50;2.30;;;;;;;15.68;60.39;100745.10;5147365;56;1139074;-78
2021/05/20 11:24:00;;;;;;;3.50;2.50;;;;;;;16.16;59.19;100736.03;5107604;56;1139143;-78
2021/05/20 11:29:09;;;;;;;1.87;1.67;;;;;;;16.31;57.18;100730.52;5087966;56;1138842;-78
2021/05/20 11:39:25;;;;;;;1.75;1.42;;;;;;;16.01;57.46;100742.36;5104463;56;1138712;-77
2021/05/20 11:44:32;;;;;;;1.60;1.50;;;;;;;16.00;57.61;100738.50;5091486;56;1138856;-76
2021/05/20 11:49:39;;;;;;;1.90;1.70;;;;;;;16.30;57.89;100732.84;5098619;56;1139023;-75
2021/05/20 11:54:50;;;;;;;1.40;1.20;;;;;;;16.18;55.48;100740.23;5099729;56;1138910;-74
2021/05/20 11:59:58;;;;;;;0.50;0.50;;;;;;;15.63;55.32;100751.35;5080595;56;1139088;-76
2021/05/20 12:05:08;;;;;;;0.50;0.50;;;;;;;15.13;55.82;100752.07;5089754;56;1139215;-77
2021/05/20 12:10:19;;;;;;;0.40;0.40;;;;;;;14.95;55.61;100647.27;5108836;56;1139200;-75
2021/05/20 12:15:28;;;;;;;1.83;0.43;;;;;;;15.38;56.63;100718.66;5091449;56;1138869;-76
2021/05/20 12:20:33;;;;;;;1.50;0.80;;;;;;;15.95;54.84;100724.76;5107394;56;1138899;-78
2021/05/20 12:25:39;;;;;;;3.40;0.90;;;;;;;16.35;53.81;100711.02;5105653;56;1139145;-74
2021/05/20 12:30:45;;;;;;;1.00;1.00;;;;;;;16.71;52.21;100703.89;5099034;56;1138562;-76
2021/05/20 12:35:52;;;;;;;2.97;0.90;;;;;;;16.91;52.46;100691.20;5082307;56;1139023;-78
2021/05/20 12:41:04;;;;;;;0.93;0.70;;;;;;;17.12;52.90;100691.17;5083777;56;1138570;-76
2021/05/20 12:46:19;;;;;;;4.63;1.00;;;;;;;17.21;50.66;100690.73;4999533;57;1138433;-77
2021/05/20 12:51:27;;;;;;;2.65;0.82;;;;;;;17.25;51.35;100679.24;5084090;56;1138429;-78
2021/05/20 12:56:43;;;;;;;3.97;1.70;;;;;;;17.37;50.90;100675.30;5082688;56;1139183;-76
2021/05/20 13:01:50;;;;;;;3.50;1.00;;;;;;;17.44;49.85;100663.79;5106834;56;1138581;-75
2021/05/20 13:07:07;;;;;;;2.03;1.27;;;;;;;17.38;50.34;100669.80;5091006;56;1138588;-75
2021/05/20 13:12:20;;;;;;;3.57;1.23;;;;;;;17.19;51.00;100670.84;5115490;56;1138793;-76
2021/05/20 13:17:45;;;;;;;13.70;1.83;;;;;;;17.08;51.65;100668.95;5089317;56;1138660;-75
2021/05/20 13:22:43;;;;;;;3.27;1.30;;;;;;;17.10;52.73;100674.98;5120834;56;1140830;-78
2021/05/20 13:27:51;;;;;;;1.37;1.27;;;;;;;17.12;53.16;100676.47;5095112;56;1139133;-75
2021/05/20 13:33:05;;;;;;;4.13;1.27;;;;;;;17.17;53.56;100669.33;5101707;56;1138542;-75
2021/05/20 13:38:09;;;;;;;2.37;1.27;;;;;;;17.07;53.03;100674.78;5091979;56;1138687;-75
2021/05/20 13:43:15;;;;;;;1.87;1.13;;;;;;;16.64;54.08;100664.11;5099754;56;1139030;-76
2021/05/20 13:48:21;;;;;;;1.45;1.00;;;;;;;16.31;56.99;100666.46;5165583;56;1139339;-76
2021/05/20 13:53:26;;;;;;;1.50;0.98;;;;;;;16.35;59.78;100662.47;5168641;56;1139183;-75
2021/05/20 13:58:33;;;;;;;7.30;1.47;;;;;;;16.65;60.55;100661.27;5168283;56;1139140;-74
2021/05/20 14:03:48;;;;;;;5.50;1.13;;;;;;;16.95;58.50;100653.34;5168122;56;1139506;-79
2021/05/20 14:08:47;;;;;;;1.27;1.10;;;;;;;17.26;56.97;100644.83;5167059;56;1138972;-75
2021/05/20 14:13:53;;;;;;;0.60;0.60;;;;;;;17.56;57.69;100641.14;5168436;56;1139075;-73
2021/05/20 14:18:59;;;;;;;1.42;0.72;;;;;;;17.83;48.38;100633.89;5091360;56;1139378;-76
2021/05/20 14:24:05;;;;;;;0.73;0.50;;;;;;;17.98;50.24;100631.42;5090280;56;1138845;-74
2021/05/20 14:29:12;;;;;;;0.33;0.33;;;;;;;18.22;45.60;100632.29;5083114;56;1138631;-77
2021/05/20 14:34:20;;;;;;;0.60;0.60;;;;;;;18.19;44.14;100625.08;5081945;56;1138466;-76
2021/05/20 14:39:26;;;;;;;0.50;0.50;;;;;;;18.14;45.68;100628.28;5093419;56;1139008;-75
2021/05/20 14:44:31;;;;;;;0.70;0.40;;;;;;;18.12;42.53;100620.91;5083508;56;1138613;-77
2021/05/20 14:49:40;;;;;;;0.50;0.50;;;;;;;18.03;40.85;100613.02;5083364;56;1139234;-78
2021/05/20 15:05:26;;;;;;;0.82;0.30;;;;;;;17.91;39.21;100614.67;5068371;57;1138550;-77
2021/05/20 15:10:36;;;;;;;3.80;0.73;;;;;;;18.20;39.64;100610.70;5122133;56;1139121;-81
2021/05/20 15:15:45;;;;;;;1.77;0.60;;;;;;;18.38;40.78;100615.40;5149987;56;1138694;-81
2021/05/20 15:20:45;;;;;;;1.77;0.70;;;;;;;18.63;42.64;100606.91;5149462;56;1138873;-78
2021/05/20 15:25:51;;;;;;;1.63;0.67;;;;;;;18.90;43.03;100615.06;5150532;56;1138529;-77
2021/05/20 15:30:58;;;;;;;0.60;0.60;;;;;;;18.99;41.15;100620.73;5150525;56;1138980;-78
2021/05/20 15:36:07;;;;;;;0.35;0.35;;;;;;;18.99;42.68;100623.41;5150474;56;1139102;-74
2021/05/20 15:41:12;;;;;;;1.20;0.90;;;;;;;19.00;43.07;100614.37;5151174;56;1138941;-77
2021/05/20 15:46:19;;;;;;;0.50;0.50;;;;;;;18.85;43.38;100616.07;5151044;56;1139113;-76
2021/05/20 15:51:26;;;;;;;0.60;0.60;;;;;;;18.65;44.33;100624.13;5150657;56;1139124;-75
2021/05/20 15:56:33;;;;;;;0.72;0.72;;;;;;;18.67;45.31;100620.78;5150895;56;1139106;-78
2021/05/20 16:01:41;;;;;;;1.53;1.43;;;;;;;18.61;44.32;100619.13;5150558;56;1139095;-78
2021/05/20 16:06:50;;;;;;;9.20;4.97;;;;;;;18.40;44.69;100625.45;5165347;56;1138326;-78
2021/05/20 16:12:23;;;;;;;7.07;3.03;;;;;;;18.07;43.91;100626.41;5168658;56;1138907;-76
2021/05/20 16:17:01;;;;;;;2.33;2.23;;;;;;;17.92;44.21;100629.73;5160103;56;1138700;-75
2021/05/20 16:22:07;;;;;;;0.50;0.47;;;;;;;17.90;44.84;100624.20;5163662;56;1138518;-77
2021/05/20 16:27:36;;;;;;;1.53;1.23;;;;;;;18.12;43.94;100620.91;5166414;56;1138568;-76
2021/05/20 16:37:48;;;;;;;1.30;0.93;;;;;;;18.07;44.00;100625.07;5164192;56;1138720;-75
2021/05/20 16:42:54;;;;;;;2.23;1.23;;;;;;;17.93;43.13;100628.73;5164368;56;1138718;-77
2021/05/20 16:48:00;;;;;;;1.83;1.60;;;;;;;17.81;43.25;100628.70;5163810;56;1138799;-79
2021/05/20 16:53:09;;;;;;;1.50;1.10;;;;;;;17.65;43.06;100631.83;5164011;56;1138868;-78
2021/05/20 16:58:24;;;;;;;4.60;1.40;;;;;;;17.52;41.81;100634.92;5184391;56;1138886;-75
2021/05/20 17:03:27;;;;;;;1.67;1.53;;;;;;;17.35;42.07;100631.34;5164466;56;1141936;-77
2021/05/20 17:08:34;;;;;;;3.70;1.55;;;;;;;17.21;42.28;100628.77;5164172;56;1138718;-79
2021/05/20 17:13:46;;;;;;;7.60;4.20;;;;;;;17.11;43.10;100629.89;5164157;56;1138793;-76
2021/05/20 17:18:48;;;;;;;16.30;8.07;;;;;;;17.07;43.36;100632.03;5163407;56;1138716;-75
2021/05/20 17:23:54;;;;;;;5.90;2.67;;;;;;;17.04;44.21;100637.69;5163974;56;1141526;-75
2021/05/20 17:29:00;;;;;;;0.93;0.93;;;;;;;17.02;44.93;100648.19;5164503;56;1138905;-73
2021/05/20 17:34:05;;;;;;;1.23;0.90;;;;;;;16.94;45.08;100637.45;5163847;56;1139165;-76
2021/05/20 17:39:11;;;;;;;2.75;1.70;;;;;;;16.83;45.57;100639.38;5163872;56;1139295;-77
2021/05/20 17:44:18;;;;;;;3.12;2.44;;;;;;;16.75;45.58;100631.81;5164200;56;1138857;-75
2021/05/20 17:49:24;;;;;;;4.50;3.17;;;;;;;16.66;45.44;100628.22;5164475;56;1138914;-73
2021/05/20 17:54:30;;;;;;;7.70;2.90;;;;;;;16.60;45.69;100626.16;5164143;56;1139426;-75
2021/05/20 17:59:36;;;;;;;5.93;2.37;;;;;;;16.56;45.70;100630.13;5163930;56;1138869;-75
2021/05/20 18:04:42;;;;;;;5.03;2.52;;;;;;;16.52;46.15;100638.09;5163445;56;1138944;-75
2021/05/20 18:09:48;;;;;;;8.43;2.77;;;;;;;16.45;46.06;100648.57;5150608;56;1138620;-75
2021/05/20 18:15:10;;;;;;;10.53;3.27;;;;;;;16.39;46.51;100645.17;5131323;56;1138509;-74
2021/05/20 18:20:39;;;;;;;5.07;3.30;;;;;;;16.36;46.88;100640.13;5089198;57;1140536;-73
2021/05/20 18:25:33;;;;;;;7.42;2.98;;;;;;;16.30;47.00;100644.77;5088187;57;1139089;-78
2021/05/20 18:30:41;;;;;;;6.77;2.20;;;;;;;16.19;46.92;100643.14;5090472;57;1138651;-74
2021/05/20 18:35:47;;;;;;;7.03;3.43;;;;;;;16.07;46.76;100647.03;5090386;57;1138816;-75
2021/05/20 18:40:55;;;;;;;30.50;11.20;;;;;;;15.94;47.20;100641.72;5090004;57;1138891;-77
2021/05/20 18:45:59;;;;;;;6.60;3.67;;;;;;;15.83;47.26;100639.62;5087346;57;1142695;-74
2021/05/20 18:51:07;;;;;;;27.53;10.77;;;;;;;15.79;47.34;100643.56;5095412;57;1139022;-73
2021/05/20 18:56:13;;;;;;;5.53;3.20;;;;;;;15.75;47.81;100644.00;5095425;57;1142708;-74
2021/05/20 19:01:19;;;;;;;30.17;15.47;;;;;;;15.72;48.16;100644.33;5095739;57;1138680;-77
2021/05/20 19:06:26;;;;;;;10.25;3.67;;;;;;;15.69;48.45;100649.45;5095272;57;1143165;-75
2021/05/20 19:11:32;;;;;;;7.43;2.60;;;;;;;15.63;48.55;100658.03;5151203;56;1141000;-73
2021/05/20 19:16:38;;;;;;;8.18;3.17;;;;;;;15.56;48.87;100660.96;5169458;56;1138903;-77
2021/05/20 19:21:44;;;;;;;5.00;3.37;;;;;;;15.46;49.05;100662.78;5169482;56;1138757;-77
2021/05/20 19:26:50;;;;;;;98.57;37.37;;;;;;;15.38;49.36;100670.69;5169062;56;1138698;-77
2021/05/20 19:32:07;;;;;;;65.00;27.73;;;;;;;15.34;49.96;100667.46;5168868;56;1142821;-73
2021/05/20 19:37:12;;;;;;;115.57;49.00;;;;;;;15.32;50.27;100665.44;5167531;56;1142696;-76
2021/05/20 19:42:18;;;;;;;49.17;19.60;;;;;;;15.29;50.35;100671.05;5168742;56;1144717;-74
2021/05/20 19:47:23;;;;;;;19.30;10.50;;;;;;;15.28;50.97;100667.19;5168996;56;1142767;-75
2021/05/20 19:52:33;;;;;;;18.60;8.50;;;;;;;15.33;51.70;100667.61;5168785;56;1143286;-76
2021/05/20 20:03:05;;;;;;;36.27;12.73;;;;;;;15.22;51.78;100671.79;5168401;56;1140958;-74
2021/05/20 20:13:33;;;;;;;12.73;6.60;;;;;;;15.02;51.54;100680.31;5153202;56;1143142;-76
2021/05/20 20:18:39;;;;;;;29.63;9.97;;;;;;;14.81;51.87;100673.86;5118635;56;1141105;-74
2021/05/20 20:29:09;;;;;;;5.93;2.57;;;;;;;14.32;53.22;100669.00;5056446;57;1139227;-75
2021/05/20 20:44:53;;;;;;;8.83;5.23;;;;;;;14.03;54.54;100658.83;5018211;57;1141063;-76
2021/05/20 20:50:00;;;;;;;7.50;3.53;;;;;;;13.94;54.77;100658.30;5086036;57;1139044;-75
2021/05/20 20:55:06;;;;;;;8.47;3.80;;;;;;;13.82;55.31;100656.75;5095210;57;1138912;-74
2021/05/20 21:00:13;;;;;;;6.20;3.27;;;;;;;13.73;55.50;100657.93;5095550;57;1138976;-78
2021/05/20 21:05:19;;;;;;;6.13;4.20;;;;;;;13.61;55.86;100655.00;5095463;57;1138899;-76
2021/05/20 21:10:27;;;;;;;6.97;3.95;;;;;;;13.59;56.22;100661.45;5095453;57;1139130;-76
2021/05/20 21:15:33;;;;;;;10.45;3.75;;;;;;;13.58;56.39;100648.65;5161723;56;1138967;-74
2021/05/20 21:20:39;;;;;;;3.97;2.87;;;;;;;13.62;56.62;100649.20;5168624;56;1141333;-77
2021/05/20 21:25:46;;;;;;;3.53;2.70;;;;;;;13.60;56.78;100640.52;5168743;56;1138378;-73
2021/05/20 21:30:52;;;;;;;18.30;6.50;;;;;;;13.59;56.96;100650.34;5168948;56;1138465;-76
2021/05/20 21:35:58;;;;;;;9.50;5.03;;;;;;;13.43;57.03;100638.53;5168874;56;1140624;-79
2021/05/20 21:41:04;;;;;;;15.37;5.73;;;;;;;13.37;57.48;100646.53;5168949;56;1138905;-75
2021/05/20 21:46:10;;;;;;;10.73;5.43;;;;;;;13.32;57.56;100646.92;5168894;56;1140671;-74
2021/05/20 21:51:15;;;;;;;8.77;4.07;;;;;;;13.15;57.63;100641.39;5168629;56;1140686;-73
2021/05/20 21:56:22;;;;;;;9.57;5.10;;;;;;;13.10;57.68;100650.23;5168957;56;1138523;-77
2021/05/20 22:01:28;;;;;;;13.58;5.53;;;;;;;13.13;58.17;100642.84;5169066;56;1138483;-76
2021/05/20 22:06:33;;;;;;;13.62;7.12;;;;;;;13.22;58.26;100642.06;5168848;56;1140654;-76
2021/05/20 22:11:52;;;;;;;18.52;8.48;;;;;;;13.21;58.30;100639.05;5169099;56;1141221;-75
2021/05/20 22:16:55;;;;;;;22.13;9.93;;;;;;;13.23;58.40;100638.92;5152706;56;1140761;-75
2021/05/20 22:22:00;;;;;;;24.53;11.57;;;;;;;13.22;58.41;100633.26;5150755;56;1140738;-74
2021/05/20 22:32:23;;;;;;;37.57;20.67;;;;;;;13.15;58.34;100628.95;5150492;56;1140937;-75
2021/05/20 22:37:28;;;;;;;12.90;7.13;;;;;;;13.08;58.47;100626.45;5150369;56;1142581;-74
2021/05/20 22:42:35;;;;;;;37.10;19.17;;;;;;;12.85;58.61;100625.76;5151383;56;1140631;-78
2021/05/20 22:47:42;;;;;;;6.63;4.47;;;;;;;12.65;59.42;100617.34;5151520;56;1142821;-76
2021/05/20 22:52:49;;;;;;;5.57;3.80;;;;;;;12.54;60.04;100611.59;5151268;56;1138465;-79
2021/05/20 22:57:55;;;;;;;37.77;16.57;;;;;;;12.53;60.05;100600.63;5151286;56;1139204;-74
2021/05/20 23:03:02;;;;;;;17.60;8.23;;;;;;;12.56;60.46;100603.02;5150926;56;1143287;-76
2021/05/20 23:08:07;;;;;;;6.47;4.37;;;;;;;12.58;60.77;100594.94;5151209;56;1141479;-76
2021/05/20 23:13:18;;;;;;;3.33;2.57;;;;;;;12.57;60.69;100590.61;5151185;56;1139109;-77
2021/05/20 23:18:24;;;;;;;3.60;2.70;;;;;;;12.31;60.64;100588.34;5151653;56;1138950;-77
2021/05/20 23:23:31;;;;;;;5.97;2.97;;;;;;;12.14;61.21;100592.04;5151894;56;1139176;-76
2021/05/20 23:28:37;;;;;;;10.70;5.10;;;;;;;12.01;61.71;100582.94;5151513;56;1138931;-77
2021/05/20 23:33:42;;;;;;;21.27;8.50;;;;;;;12.03;62.23;100577.03;5151116;56;1141380;-76
2021/05/20 23:38:48;;;;;;;11.88;5.17;;;;;;;12.05;62.30;100571.61;5150868;56;1141010;-74
2021/05/20 23:43:55;;;;;;;7.83;3.33;;;;;;;12.00;62.21;100571.98;5151291;56;1141009;-74
2021/05/20 23:49:01;;;;;;;5.03;3.30;;;;;;;11.93;62.34;100569.45;5151228;56;1138993;-74
2021/05/20 23:54:07;;;;;;;13.13;6.40;;;;;;;11.88;62.44;100560.59;5150886;56;1139412;-76
2021/05/20 23:59:13;;;;;;;5.10;2.83;;;;;;;11.85;62.55;100558.18;5150901;56;1141172;-74
